createdAt,value
2022-11-22T00:01:37.437Z,1.37
2022-11-22T00:04:04.344Z,2.17
2022-11-22T00:06:31.092Z,1.37
2022-11-22T00:08:57.877Z,1.20
2022-11-22T00:11:24.623Z,1.70
2022-11-22T00:13:51.527Z,1.10
2022-11-22T00:16:18.325Z,1.27
2022-11-22T00:18:45.063Z,1.30
2022-11-22T00:21:11.797Z,1.50
2022-11-22T00:23:38.500Z,0.83
2022-11-22T00:26:07.048Z,1.77
2022-11-22T00:28:52.784Z,0.93
2022-11-22T00:31:19.704Z,0.60
2022-11-22T00:33:46.542Z,0.65
2022-11-22T00:36:13.416Z,0.90
2022-11-22T00:38:40.100Z,1.50
2022-11-22T00:41:06.875Z,1.17
2022-11-22T00:43:33.650Z,1.00
2022-11-22T00:46:01.086Z,0.77
2022-11-22T00:48:28.416Z,1.02
2022-11-22T00:50:56.160Z,0.60
2022-11-22T00:53:23.506Z,0.40
2022-11-22T00:55:50.370Z,0.60
2022-11-22T00:58:17.121Z,0.80
2022-11-22T01:00:43.924Z,1.00
2022-11-22T01:03:12.547Z,0.87
2022-11-22T01:05:40.213Z,1.30
2022-11-22T01:08:07.520Z,1.20
2022-11-22T01:10:37.878Z,1.00
2022-11-22T01:13:05.146Z,0.90
2022-11-22T01:15:32.638Z,1.80
2022-11-22T01:17:59.358Z,0.80
2022-11-22T01:20:26.112Z,1.03
2022-11-22T01:22:52.893Z,0.50
2022-11-22T01:28:04.385Z,0.90
2022-11-22T01:30:50.473Z,1.07
2022-11-22T01:33:35.894Z,1.00
2022-11-22T01:36:02.804Z,0.80
2022-11-22T01:38:29.598Z,0.73
2022-11-22T01:40:56.662Z,0.73
2022-11-22T01:43:26.259Z,0.40
2022-11-22T01:45:58.052Z,0.80
2022-11-22T01:48:27.668Z,0.97
2022-11-22T01:51:00.693Z,1.13
2022-11-22T01:53:35.648Z,1.08
2022-11-22T01:56:04.741Z,0.60
2022-11-22T01:58:34.941Z,0.53
2022-11-22T02:01:02.480Z,0.70
2022-11-22T02:03:33.059Z,0.87
2022-11-22T02:06:00.248Z,1.20
2022-11-22T02:08:40.560Z,0.87
2022-11-22T02:11:33.656Z,0.83
2022-11-22T02:14:01.161Z,0.87
2022-11-22T02:16:28.066Z,1.03
2022-11-22T02:19:13.410Z,0.60
2022-11-22T02:21:40.311Z,1.20
2022-11-22T02:24:36.011Z,0.70
2022-11-22T02:27:03.020Z,0.90
2022-11-22T02:29:31.744Z,0.93
2022-11-22T02:31:58.745Z,0.50
2022-11-22T02:34:25.517Z,1.37
2022-11-22T02:36:54.452Z,1.60
2022-11-22T02:39:29.549Z,0.90
2022-11-22T02:41:57.251Z,0.75
2022-11-22T02:44:25.241Z,1.07
2022-11-22T02:46:55.234Z,0.80
2022-11-22T02:49:24.222Z,1.70
2022-11-22T02:51:52.417Z,0.50
2022-11-22T02:54:19.761Z,1.27
2022-11-22T02:56:47.032Z,1.60
2022-11-22T02:59:13.883Z,1.13
2022-11-22T03:01:41.955Z,0.90
2022-11-22T03:04:08.686Z,0.90
2022-11-22T03:06:35.458Z,1.00
2022-11-22T03:09:03.197Z,1.20
2022-11-22T03:11:29.951Z,1.40
2022-11-22T03:13:56.775Z,1.10
2022-11-22T03:16:23.489Z,1.33
2022-11-22T03:18:50.349Z,1.53
2022-11-22T03:21:17.110Z,1.07
2022-11-22T03:26:28.172Z,1.30
2022-11-22T03:28:54.960Z,0.70
2022-11-22T03:31:21.784Z,0.80
2022-11-22T03:33:48.715Z,1.17
2022-11-22T03:36:15.580Z,1.02
2022-11-22T03:38:42.414Z,1.30
2022-11-22T03:41:09.280Z,1.17
2022-11-22T03:43:36.096Z,1.30
2022-11-22T03:46:02.855Z,1.15
2022-11-22T03:48:29.597Z,1.13
2022-11-22T03:51:04.598Z,1.63
2022-11-22T03:53:32.545Z,1.10
2022-11-22T03:55:59.740Z,0.90
2022-11-22T03:58:26.573Z,0.60
2022-11-22T04:00:53.413Z,1.33
2022-11-22T04:03:20.140Z,0.93
2022-11-22T04:05:46.961Z,1.50
2022-11-22T04:08:14.071Z,1.40
2022-11-22T04:10:40.786Z,1.15
2022-11-22T04:13:07.971Z,0.70
2022-11-22T04:15:34.677Z,1.13
2022-11-22T04:18:01.433Z,1.07
2022-11-22T04:20:48.630Z,0.83
2022-11-22T04:23:18.152Z,1.17
2022-11-22T04:25:51.085Z,0.87
2022-11-22T04:28:22.612Z,1.58
2022-11-22T04:31:12.828Z,1.07
2022-11-22T04:33:39.633Z,1.40
2022-11-22T04:36:11.856Z,1.92
2022-11-22T04:38:39.995Z,1.43
2022-11-22T04:41:06.708Z,1.23
2022-11-22T04:44:10.227Z,1.23
2022-11-22T04:46:55.742Z,0.90
2022-11-22T04:49:22.737Z,1.07
2022-11-22T04:52:27.697Z,1.20
2022-11-22T04:55:12.996Z,0.90
2022-11-22T04:57:39.784Z,0.77
2022-11-22T05:00:07.271Z,1.73
2022-11-22T05:02:34.029Z,1.03
2022-11-22T05:05:00.784Z,0.90
2022-11-22T05:07:27.548Z,1.33
2022-11-22T05:09:54.398Z,0.40
2022-11-22T05:12:21.133Z,0.83
2022-11-22T05:14:47.992Z,0.90
2022-11-22T05:17:14.694Z,1.23
2022-11-22T05:19:45.000Z,0.85
2022-11-22T05:22:14.593Z,1.58
2022-11-22T05:24:41.329Z,0.57
2022-11-22T05:27:08.176Z,1.08
2022-11-22T05:29:35.487Z,0.83
2022-11-22T05:32:02.468Z,1.33
2022-11-22T05:34:48.032Z,1.23
2022-11-22T05:37:14.784Z,0.80
2022-11-22T05:39:41.766Z,1.10
2022-11-22T05:42:26.910Z,0.75
2022-11-22T05:44:53.704Z,1.58
2022-11-22T05:47:20.421Z,1.33
2022-11-22T05:49:47.219Z,0.73
2022-11-22T05:52:14.030Z,0.73
2022-11-22T05:54:40.804Z,1.05
2022-11-22T05:57:26.248Z,1.02
2022-11-22T06:00:11.658Z,0.80
2022-11-22T06:02:40.986Z,0.90
2022-11-22T06:05:08.272Z,1.10
2022-11-22T06:07:35.145Z,0.63
2022-11-22T06:10:02.061Z,0.90
2022-11-22T06:12:28.767Z,0.70
2022-11-22T06:14:55.585Z,0.67
2022-11-22T06:17:22.331Z,0.97
2022-11-22T06:19:49.035Z,0.60
2022-11-22T06:22:15.826Z,0.88
2022-11-22T06:24:42.988Z,1.33
2022-11-22T06:27:10.023Z,1.00
2022-11-22T06:29:36.769Z,0.98
2022-11-22T06:32:04.278Z,1.73
2022-11-22T06:34:31.461Z,1.57
2022-11-22T06:36:58.295Z,1.75
2022-11-22T06:39:24.990Z,1.17
2022-11-22T06:41:51.785Z,1.23
2022-11-22T06:44:18.545Z,1.07
2022-11-22T06:46:45.281Z,1.15
2022-11-22T06:49:12.002Z,0.93
2022-11-22T06:51:38.776Z,1.10
2022-11-22T06:54:05.694Z,1.13
2022-11-22T06:56:51.386Z,1.23
2022-11-22T06:59:18.284Z,1.30
2022-11-22T07:01:45.098Z,1.10
2022-11-22T07:04:12.094Z,1.27
2022-11-22T07:06:39.427Z,1.10
2022-11-22T07:09:09.102Z,0.87
2022-11-22T07:11:36.374Z,1.10
2022-11-22T07:14:08.192Z,1.17
2022-11-22T07:16:37.514Z,1.40
2022-11-22T07:19:05.490Z,1.63
2022-11-22T07:21:32.678Z,1.15
2022-11-22T07:23:59.601Z,1.88
2022-11-22T07:26:27.313Z,1.02
2022-11-22T07:28:54.113Z,1.23
2022-11-22T07:31:21.159Z,1.33
2022-11-22T07:33:48.163Z,1.90
2022-11-22T07:36:20.535Z,1.15
2022-11-22T07:38:48.567Z,0.88
2022-11-22T07:41:16.392Z,1.63
2022-11-22T07:43:43.585Z,1.20
2022-11-22T07:46:31.322Z,1.17
2022-11-22T07:49:36.370Z,0.80
2022-11-22T07:52:03.178Z,0.98
2022-11-22T07:54:31.294Z,1.60
2022-11-22T07:56:58.170Z,1.08
2022-11-22T07:59:25.285Z,1.40
2022-11-22T08:01:52.047Z,1.40
2022-11-22T08:04:19.906Z,1.80
2022-11-22T08:06:46.842Z,1.00
2022-11-22T08:09:13.594Z,1.40
2022-11-22T08:11:40.317Z,1.83
2022-11-22T08:14:07.043Z,1.73
2022-11-22T08:16:33.739Z,1.25
2022-11-22T08:19:00.486Z,1.42
2022-11-22T08:21:27.283Z,1.70
2022-11-22T08:23:58.435Z,1.98
2022-11-22T08:26:26.207Z,1.80
2022-11-22T08:28:53.808Z,1.75
2022-11-22T08:31:20.717Z,1.50
2022-11-22T08:33:48.415Z,1.43
2022-11-22T08:36:15.541Z,1.23
2022-11-22T08:38:42.392Z,1.48
2022-11-22T08:44:12.820Z,1.38
2022-11-22T08:46:39.597Z,1.33
2022-11-22T08:49:09.153Z,1.63
2022-11-22T08:51:37.011Z,1.50
2022-11-22T08:54:03.836Z,1.58
2022-11-22T08:57:08.220Z,1.50
2022-11-22T09:02:19.566Z,1.10
2022-11-22T09:04:46.357Z,1.90
2022-11-22T09:09:59.950Z,1.50
2022-11-22T09:12:46.351Z,1.25
2022-11-22T09:15:14.125Z,1.02
2022-11-22T09:17:40.866Z,1.63
2022-11-22T09:20:26.703Z,1.17
2022-11-22T09:22:53.481Z,1.17
2022-11-22T09:25:20.231Z,1.05
2022-11-22T09:27:46.992Z,1.30
2022-11-22T09:30:13.892Z,0.70
2022-11-22T09:32:43.672Z,0.73
2022-11-22T09:35:10.680Z,0.80
2022-11-22T09:37:37.417Z,1.03
2022-11-22T09:40:05.063Z,0.83
2022-11-22T09:43:07.601Z,0.82
2022-11-22T09:45:46.369Z,1.05
2022-11-22T09:48:21.567Z,0.90
2022-11-22T09:51:10.631Z,0.95
2022-11-22T09:54:01.998Z,0.87
2022-11-22T09:56:29.987Z,0.63
2022-11-22T09:59:24.930Z,0.70
2022-11-22T10:02:16.959Z,0.93
2022-11-22T10:04:54.551Z,0.97
2022-11-22T10:07:29.795Z,0.68
2022-11-22T10:10:19.230Z,0.88
2022-11-22T10:13:02.463Z,1.08
2022-11-22T10:15:32.767Z,1.00
2022-11-22T10:18:11.679Z,1.60
2022-11-22T10:20:47.339Z,1.48
2022-11-22T10:23:18.239Z,1.17
2022-11-22T10:25:58.968Z,1.10
2022-11-22T10:28:53.938Z,1.27
2022-11-22T10:31:26.711Z,1.00
2022-11-22T10:34:18.950Z,1.20
2022-11-22T10:37:02.648Z,1.23
2022-11-22T10:39:48.070Z,0.82
2022-11-22T10:42:41.095Z,1.63
2022-11-22T10:45:33.436Z,1.35
2022-11-22T10:48:06.047Z,2.28
2022-11-22T10:50:48.483Z,1.50
2022-11-22T10:53:49.281Z,1.23
2022-11-22T10:56:37.727Z,1.27
2022-11-22T10:59:22.073Z,1.50
2022-11-22T11:02:23.140Z,1.17
2022-11-22T11:04:52.090Z,1.02
2022-11-22T11:07:23.180Z,1.10
2022-11-22T11:10:16.334Z,1.13
2022-11-22T11:12:55.936Z,1.67
2022-11-22T11:15:44.447Z,1.30
2022-11-22T11:18:31.596Z,1.45
2022-11-22T11:20:58.833Z,1.63
2022-11-22T11:23:25.637Z,1.80
2022-11-22T11:25:52.671Z,1.90
2022-11-22T11:28:26.152Z,1.73
2022-11-22T11:31:13.676Z,1.48
2022-11-22T11:33:41.704Z,1.70
2022-11-22T11:36:11.734Z,2.15
2022-11-22T11:38:58.748Z,1.20
2022-11-22T11:41:28.550Z,1.90
2022-11-22T11:43:58.277Z,1.40
2022-11-22T11:46:27.437Z,2.00
2022-11-22T11:49:11.423Z,2.03
2022-11-22T11:51:39.977Z,1.70
2022-11-22T11:54:28.861Z,1.20
2022-11-22T11:57:07.693Z,1.48
2022-11-22T11:59:40.220Z,1.70
2022-11-22T12:02:23.242Z,2.05
2022-11-22T12:04:53.795Z,1.85
2022-11-22T12:10:40.709Z,1.45
2022-11-22T12:13:31.696Z,1.27
2022-11-22T12:16:09.454Z,0.80
2022-11-22T12:18:43.568Z,1.02
2022-11-22T12:21:41.865Z,1.23
2022-11-22T12:24:48.481Z,1.60
2022-11-22T12:27:14.619Z,0.93
2022-11-22T12:29:43.856Z,1.25
2022-11-22T12:32:55.432Z,1.73
2022-11-22T12:35:25.101Z,1.23
2022-11-22T12:38:02.374Z,1.08
2022-11-22T12:40:57.132Z,2.00
2022-11-22T12:43:34.723Z,2.55
2022-11-22T12:46:26.075Z,1.92
2022-11-22T12:49:11.676Z,1.83
2022-11-22T12:54:50.191Z,1.90
2022-11-22T13:00:42.345Z,1.65
2022-11-22T13:03:18.135Z,1.30
2022-11-22T13:05:56.245Z,1.75
2022-11-22T13:08:52.855Z,1.65
2022-11-22T13:11:23.784Z,2.08
2022-11-22T13:13:59.051Z,1.75
2022-11-22T13:16:25.869Z,1.23
2022-11-22T13:19:05.052Z,0.70
2022-11-22T13:22:04.061Z,0.60
2022-11-22T13:24:54.924Z,1.20
2022-11-22T13:27:27.659Z,0.90
2022-11-22T13:29:57.848Z,0.80
2022-11-22T13:32:43.405Z,0.80
2022-11-22T13:35:13.113Z,1.40
2022-11-22T13:38:19.123Z,1.30
2022-11-22T13:40:50.574Z,1.38
2022-11-22T13:43:22.339Z,0.90
2022-11-22T13:45:51.727Z,1.60
2022-11-22T13:48:40.196Z,1.10
2022-11-22T13:51:12.306Z,1.33
2022-11-22T13:53:46.887Z,1.45
2022-11-22T13:56:16.696Z,1.13
2022-11-22T13:58:52.657Z,1.27
2022-11-22T14:01:34.664Z,1.42
2022-11-22T14:04:19.773Z,1.30
2022-11-22T14:07:05.181Z,1.00
2022-11-22T14:10:25.806Z,0.90
2022-11-22T14:16:06.500Z,0.90
2022-11-22T14:18:54.482Z,0.82
2022-11-22T14:21:30.219Z,0.77
2022-11-22T14:24:11.840Z,0.80
2022-11-22T14:26:57.955Z,0.80
2022-11-22T14:29:53.960Z,0.98
2022-11-22T14:32:23.956Z,1.00
2022-11-22T14:35:29.307Z,0.87
2022-11-22T14:41:27.320Z,0.82
2022-11-22T14:44:19.457Z,8.45
2022-11-22T14:46:53.972Z,1.23
2022-11-22T14:49:30.854Z,1.77
2022-11-22T14:51:59.627Z,1.30
2022-11-22T14:54:47.949Z,1.53
2022-11-22T14:57:21.165Z,0.93
2022-11-22T15:00:26.650Z,1.25
2022-11-22T15:03:12.227Z,1.07
2022-11-22T15:09:14.766Z,1.30
2022-11-22T15:09:39.387Z,2.15
2022-11-22T15:12:36.447Z,2.22
2022-11-22T15:59:44.938Z,0.97
2022-11-22T16:02:19.725Z,0.90
2022-11-22T16:06:06.891Z,1.10
2022-11-22T16:07:49.165Z,1.27
2022-11-22T16:10:21.156Z,3.90
2022-11-22T16:12:48.167Z,1.93
2022-11-22T16:15:36.453Z,2.60
2022-11-22T16:18:08.681Z,2.75
2022-11-22T16:20:37.177Z,3.63
2022-11-22T16:23:41.519Z,3.20
2022-11-22T16:26:29.532Z,3.57
2022-11-22T16:29:11.304Z,3.07
2022-11-22T16:31:39.861Z,4.30
2022-11-22T16:34:44.711Z,4.20
2022-11-22T16:37:47.846Z,4.47
2022-11-22T16:40:15.499Z,4.33
2022-11-22T16:42:42.908Z,3.60
2022-11-22T16:45:19.850Z,4.30
2022-11-22T16:47:54.602Z,4.00
2022-11-22T16:51:15.131Z,4.37
2022-11-22T16:56:30.289Z,4.20
2022-11-22T16:58:57.920Z,4.53
2022-11-22T17:01:43.978Z,4.40
2022-11-22T17:04:22.569Z,4.73
2022-11-22T17:06:50.476Z,4.30
2022-11-22T17:09:17.741Z,5.03
2022-11-22T17:11:45.505Z,4.07
2022-11-22T17:14:35.366Z,4.17
2022-11-22T17:17:04.168Z,5.20
2022-11-22T17:20:08.747Z,4.87
2022-11-22T17:22:35.627Z,5.50
2022-11-22T17:25:02.804Z,7.77
2022-11-22T17:27:29.520Z,8.63
2022-11-22T17:29:56.384Z,7.43
2022-11-22T17:32:23.041Z,7.30
2022-11-22T17:34:49.907Z,6.10
2022-11-22T17:37:16.765Z,7.70
2022-11-22T17:40:03.254Z,6.20
2022-11-22T17:42:30.045Z,6.30
2022-11-22T17:45:40.251Z,3.93
2022-11-22T17:48:50.052Z,4.20
2022-11-22T17:51:16.800Z,4.03
2022-11-22T17:53:43.559Z,4.43
2022-11-22T17:56:11.788Z,4.07
2022-11-22T17:58:40.512Z,4.47
2022-11-22T18:01:31.722Z,4.53
2022-11-22T18:03:58.585Z,4.20
2022-11-22T18:09:29.339Z,4.37
2022-11-22T18:11:56.665Z,4.50
2022-11-22T18:14:23.734Z,4.63
2022-11-22T18:16:50.474Z,4.70
2022-11-22T18:19:17.249Z,4.47
2022-11-22T18:21:44.188Z,4.50
2022-11-22T18:24:11.171Z,5.33
2022-11-22T18:26:39.314Z,4.57
2022-11-22T18:31:54.605Z,4.87
2022-11-22T18:34:22.377Z,5.60
2022-11-22T18:37:08.101Z,6.37
2022-11-22T18:39:38.545Z,9.10
2022-11-22T18:42:08.201Z,7.10
2022-11-22T18:44:35.089Z,7.67
2022-11-22T18:47:39.696Z,8.50
2022-11-22T18:50:26.740Z,6.70
2022-11-22T18:52:53.948Z,6.77
2022-11-22T18:55:20.705Z,5.10
2022-11-22T18:57:51.284Z,4.17
2022-11-22T19:00:55.767Z,5.27
2022-11-22T19:03:22.577Z,5.33
2022-11-22T19:05:49.452Z,4.83
2022-11-22T19:08:16.184Z,4.40
2022-11-22T19:10:44.007Z,3.60
2022-11-22T19:13:10.806Z,3.50
2022-11-22T19:15:56.837Z,4.70
2022-11-22T19:18:23.715Z,4.53
2022-11-22T19:20:57.595Z,5.00
2022-11-22T19:31:59.099Z,13.37
2022-11-22T19:34:25.790Z,8.37
2022-11-22T19:36:52.627Z,7.43
2022-11-22T19:39:20.387Z,7.00
2022-11-22T19:41:47.264Z,5.17
2022-11-22T19:44:13.969Z,6.17
2022-11-22T19:46:41.558Z,8.17
2022-11-22T19:49:27.674Z,9.33
2022-11-22T19:51:54.679Z,8.30
2022-11-22T19:54:21.406Z,8.90
2022-11-22T19:59:34.662Z,9.60
2022-11-22T20:02:01.889Z,8.17
2022-11-22T20:04:47.601Z,5.83
2022-11-22T20:07:14.417Z,4.70
2022-11-22T20:09:41.191Z,4.30
2022-11-22T20:12:08.016Z,4.63
2022-11-22T20:14:34.712Z,3.60
2022-11-22T20:17:21.222Z,4.03
2022-11-22T20:19:48.203Z,4.27
2022-11-22T20:22:14.951Z,4.13
2022-11-22T20:24:41.745Z,3.97
2022-11-22T20:27:09.539Z,4.93
2022-11-22T20:29:55.399Z,5.40
2022-11-22T20:32:42.071Z,5.23
2022-11-22T20:35:09.780Z,6.13
2022-11-22T20:37:36.557Z,6.23
2022-11-22T20:40:22.374Z,7.03
2022-11-22T20:42:49.070Z,6.37
2022-11-22T20:45:15.892Z,7.33
2022-11-22T20:48:02.178Z,7.83
2022-11-22T20:50:29.124Z,8.53
2022-11-22T20:53:15.213Z,8.70
2022-11-22T20:55:42.051Z,9.33
2022-11-22T20:58:08.753Z,8.70
2022-11-22T21:00:55.842Z,8.90
2022-11-22T21:03:23.679Z,8.80
2022-11-22T21:05:53.791Z,9.47
2022-11-22T21:08:42.210Z,9.80
2022-11-22T21:11:24.395Z,8.93
2022-11-22T21:13:51.943Z,9.43
2022-11-22T21:16:24.425Z,10.70
2022-11-22T21:19:29.255Z,10.03
2022-11-22T21:21:55.992Z,9.97
2022-11-22T21:24:22.685Z,11.07
2022-11-22T21:26:50.045Z,10.80
2022-11-22T21:29:17.043Z,9.53
2022-11-22T21:31:44.031Z,9.67
2022-11-22T21:34:11.061Z,10.20
2022-11-22T21:36:38.242Z,9.87
2022-11-22T21:39:05.219Z,9.90
2022-11-22T21:41:39.835Z,10.03
2022-11-22T21:44:26.043Z,9.80
2022-11-22T21:46:52.825Z,9.00
2022-11-22T21:49:19.654Z,8.93
2022-11-22T21:51:48.014Z,7.30
2022-11-22T21:54:34.271Z,7.07
2022-11-22T21:57:02.908Z,7.00
2022-11-22T21:59:30.271Z,5.83
2022-11-22T22:01:58.537Z,7.10
2022-11-22T22:04:25.257Z,7.70
2022-11-22T22:07:29.801Z,6.00
2022-11-22T22:09:58.193Z,4.50
2022-11-22T22:12:43.572Z,4.27
2022-11-22T22:15:30.788Z,4.03
2022-11-22T22:18:15.876Z,2.83
2022-11-22T22:20:42.759Z,3.07
2022-11-22T22:23:09.734Z,3.23
2022-11-22T22:25:40.133Z,2.53
2022-11-22T22:28:07.388Z,2.57
2022-11-22T22:30:34.123Z,2.20
2022-11-22T22:33:00.891Z,2.97
2022-11-22T22:35:28.288Z,2.77
2022-11-22T22:37:55.082Z,2.43
2022-11-22T22:40:22.345Z,1.90
2022-11-22T22:42:49.163Z,2.30
2022-11-22T22:45:15.949Z,2.47
2022-11-22T22:47:42.707Z,2.37
2022-11-22T22:50:09.769Z,2.30
2022-11-22T22:52:36.471Z,1.77
2022-11-22T22:55:03.393Z,1.50
2022-11-22T22:57:30.328Z,1.97
2022-11-22T22:59:58.526Z,1.33
2022-11-22T23:02:44.155Z,1.47
2022-11-22T23:05:10.967Z,1.30
2022-11-22T23:07:42.639Z,1.53
2022-11-22T23:10:29.174Z,1.50
2022-11-22T23:12:56.037Z,1.10
2022-11-22T23:15:43.858Z,1.33
2022-11-22T23:18:09.595Z,1.60
2022-11-22T23:20:59.563Z,1.23
2022-11-22T23:23:26.563Z,2.67
2022-11-22T23:26:12.662Z,1.97
2022-11-22T23:28:39.684Z,1.47
2022-11-22T23:31:16.018Z,2.17
2022-11-22T23:33:43.744Z,2.87
2022-11-22T23:36:29.299Z,3.50
2022-11-22T23:38:56.237Z,3.27
2022-11-22T23:41:24.364Z,3.63
2022-11-22T23:46:40.068Z,4.13
2022-11-22T23:49:07.216Z,4.20
2022-11-22T23:51:35.463Z,3.97
2022-11-22T23:54:04.884Z,3.73
2022-11-22T23:56:49.889Z,3.53
2022-11-22T23:59:35.547Z,3.60
